Redondo, Valles Caldera, New Mexico Weather observations

Data are for 10 minute period ending at time listed.
 Day   Time   Solar   Ave.   Ave.  Ave.  Vector  Max.   Baro.   Total    
  of    of     Rad.   Air    Rel.  Wind   Wind   Wind  Press.  Precip.   
Year   Day            Temp.  Hum.  Speed  Dir.   Gust                    
2015   (MST)  Kw/m2    F      %     mph   deg.    mph    mb.     in.     
-------------------------------------------------------------------------
 110    0:00   0.00   29.3    63    4.5     0    10.2   686.5    0.00 
 110    0:10   0.00   29.7    62    4.7     0     9.6   686.4    0.00 
 110    0:20   0.00   29.7    62    4.8     0    10.8   686.4    0.00 
 110    0:30   0.00   29.7    62    5.5     0    10.8   686.3    0.00 
 110    0:40   0.00   29.5    62    4.8     0    10.2   686.2    0.00 
 110    0:50   0.00   29.8    61    6.1     0    12.5   686.1    0.00 
 110    1:00   0.00   30.1    59    6.9     0    12.5   686.0    0.00 
 110    1:10   0.00   30.2    59    6.6     0    14.3   686.0    0.00 
 110    1:20   0.00   30.3    59    6.8     0    13.1   685.9    0.00 
 110    1:30   0.00   30.2    60    6.7     0    12.5   685.9    0.00 
 110    1:40   0.00   30.0    59    6.0     0    11.3   685.9    0.00 
 110    1:50   0.00   29.9    58    6.7     0    13.7   685.8    0.00 
 110    2:00   0.00   29.8    60    6.6     0    13.1   685.7    0.00 
 110    2:10   0.00   30.0    60    7.1     0    17.3   685.6    0.00 
 110    2:20   0.00   30.7    57    7.0     0    13.1   685.7    0.00 
 110    2:30   0.00   30.5    58    6.8     0    13.1   685.7    0.00 
 110    2:40   0.00   30.4    57    6.5     0    14.9   685.7    0.00 
 110    2:50   0.00   29.8    60    5.4     0    11.3   685.8    0.00 
 110    3:00   0.00   29.0    62    5.2     0    11.3   685.8    0.00 
 110    3:10   0.00   28.7    63    5.2     0     9.6   685.8    0.00 
 110    3:20   0.00   28.8    65    6.5     0    13.1   685.8    0.00 
 110    3:30   0.00   29.0    66    6.1     0    10.8   685.6    0.00 
 110    3:40   0.00   28.6    68    7.6     0    14.9   685.5    0.00 
 110    3:50   0.00   28.8    68    6.1     0    12.5   685.5    0.00 
 110    4:00   0.00   28.7    68    5.6     0    10.8   685.5    0.00 
 110    4:10   0.00   28.1    70    4.8     0    10.8   685.4    0.00 
 110    4:20   0.00   27.7    70    5.4     0    10.2   685.4    0.00 
 110    4:30   0.00   27.9    69    5.5     0    10.8   685.4    0.00 
 110    4:40   0.00   28.1    69    6.2     0    13.1   685.5    0.00 
 110    4:50   0.00   28.0    69    5.7     0    11.3   685.5    0.00 
 110    5:00   0.00   28.2    67    6.3     0    11.3   685.5    0.00 
 110    5:10   0.00   28.6    66    5.9     0    11.3   685.4    0.00 
 110    5:20   0.00   28.9    65    5.9     0    10.8   685.4    0.00 
 110    5:30   0.00   28.9    66    5.9     0    11.9   685.5    0.00 
 110    5:40   0.01   29.2    66    5.9     0    12.5   685.6    0.00 
 110    5:50   0.01   29.2    67    5.3     0    10.8   685.5    0.00 
 110    6:00   0.02   29.3    66    6.0     0    10.8   685.5    0.00 
 110    6:10   0.02   29.5    66    5.3     0     9.6   685.7    0.00 
 110    6:20   0.03   29.4    66    5.1     0     9.6   685.7    0.00 
 110    6:30   0.08   29.8    65    4.9     0    11.3   685.9    0.00 
 110    6:40   0.15   31.1    62    5.4     0    10.2   685.9    0.00 
 110    6:50   0.21   32.4    59    6.3     0    11.9   685.9    0.00 
 110    7:00   0.22   33.6    56    6.7     0    12.5   685.9    0.00 
 110    7:10   0.21   34.4    53    7.2     0    11.9   685.9    0.00 
 110    7:20   0.14   34.3    54    7.8     0    14.3   686.1    0.00 
 110    7:30   0.23   34.0    55    7.7     0    16.7   686.1    0.00 
 110    7:40   0.39   35.1    54    7.4     0    14.9   686.1    0.00 
 110    7:50   0.46   36.1    52    6.6     0    13.7   686.1    0.00 
 110    8:00   0.49   36.5    52    7.0     0    13.1   686.1    0.00 
 110    8:10   0.53   36.8    51    6.9     0    13.7   686.1    0.00 
 110    8:20   0.56   37.9    50    6.7     0    13.7   686.1    0.00 
 110    8:30   0.59   38.0    50    6.4     0    13.7   686.2    0.00 
 110    8:40   0.63   38.1    49    7.3     0    13.1   686.2    0.00 
 110    8:50   0.66   38.1    50    7.3     0    13.7   686.2    0.00 
 110    9:00   0.69   39.4    48    6.8     0    13.1   686.3    0.00 
 110    9:10   0.71   40.1    46    6.9     0    17.3   686.3    0.00 
 110    9:20   0.75   40.3    44    7.2     0    16.7   686.3    0.00 
 110    9:30   0.78   40.2    44    8.0     0    17.3   686.3    0.00 
 110    9:40   0.80   41.1    42    7.4     0    17.9   686.3    0.00 
 110    9:50   0.83   41.6    40    7.0     0    14.9   686.3    0.00 
 110   10:00   0.74   40.9    42    7.2     0    13.7   686.3    0.00 
 110   10:10   0.72   40.4    41    8.5     0    22.1   686.3    0.00 
 110   10:20   0.92   41.1    40    7.6     0    16.1   686.3    0.00 
 110   10:30   0.71   41.8    40    6.6     0    14.9   686.3    0.00 
 110   10:40   0.83   41.5    36    7.6     0    19.7   686.3    0.00 
 110   10:50   0.84   41.5    37    8.2     0    16.7   686.2    0.00 
 110   11:00   0.83   40.9    38    7.4     0    17.3   686.2    0.00 
 110   11:10   0.82   42.0    37    8.2     0    19.1   686.2    0.00 
 110   11:20   1.03   42.2    38    8.2     0    19.1   686.1    0.00 
 110   11:30   0.69   42.3    38    7.3     0    13.7   686.0    0.00 
 110   11:40   0.96   41.4    38    8.7     0    19.7   685.9    0.00 
 110   11:50   1.06   42.5    38    8.1     0    14.3   685.8    0.00 
 110   12:00   0.95   42.8    41    8.0     0    19.7   685.7    0.00 
 110   12:10   0.61   41.8    40    8.1     0    15.5   685.7    0.00 
 110   12:20   0.57   41.9    41    7.1     0    13.1   685.6    0.00 
 110   12:30   0.39   41.3    40    7.7     0    16.7   685.6    0.00 
 110   12:40   0.41   40.2    42    8.0     0    16.7   685.4    0.00 
 110   12:50   0.50   41.5    41    7.5     0    12.5   685.4    0.00 
 110   13:00   0.69   41.1    39    9.1     0    20.9   685.4    0.00 
 110   13:10   0.83   43.0    35    8.7     0    16.7   685.4    0.00 
 110   13:20   0.19   41.2    35    9.7     0    23.9   685.2    0.00 
 110   13:30   0.29   40.0    38    8.3     0    17.9   685.2    0.00 
 110   13:40   0.68   41.9    36    7.9     0    17.9   685.2    0.00 
 110   13:50   0.61   41.9    36    7.4     0    18.5   685.1    0.00 
 110   14:00   0.64   45.2    34    8.0     0    17.9   685.0    0.00 
 110   14:10   0.21   41.8    36    7.3     0    14.3   684.9    0.00 
 110   14:20   0.35   41.0    37    8.1     0    16.1   684.9    0.00 
 110   14:30   0.27   40.5    37    8.4     0    16.7   685.0    0.00 
 110   14:40   0.34   40.5    35    9.5     0    22.1   685.0    0.00 
 110   14:50   0.44   41.5    34    8.1     0    17.9   685.0    0.00 
 110   15:00   0.23   40.6    33   10.0     0    21.5   684.9    0.00 
 110   15:10   0.22   40.2    34    7.4     0    16.1   684.9    0.00 
 110   15:20   0.39   40.5    37    8.2     0    16.1   685.0    0.00 
 110   15:30   0.43   41.1    36    8.4     0    20.3   685.0    0.00 
 110   15:40   0.15   41.3    33    8.1     0    24.5   684.9    0.00 
 110   15:50   0.13   40.2    35    7.1     0    14.9   684.9    0.00 
 110   16:00   0.12   39.6    40    6.4     0    12.5   684.9    0.00 
 110   16:10   0.08   38.6    40    7.7     0    17.9   684.9    0.00 
 110   16:20   0.18   38.9    40    8.4     0    18.5   684.9    0.00 
 110   16:30   0.12   38.7    41    6.9     0    14.3   685.0    0.00 
 110   16:40   0.07   38.2    41    7.9     0    22.7   685.0    0.00 
 110   16:50   0.12   36.5    45    9.2     0    20.9   685.2    0.00 
 110   17:00   0.17   37.3    42    7.1     0    14.3   685.1    0.00 
 110   17:10   0.16   37.5    44    7.8     0    16.1   685.2    0.00 
 110   17:20   0.11   37.6    45    9.2     0    17.3   685.3    0.00 
 110   17:30   0.04   37.2    47    8.1     0    18.5   685.3    0.00 
 110   17:40   0.03   35.2    56    8.0     0    16.1   685.4    0.00 
 110   17:50   0.04   34.3    56    7.9     0    20.9   685.3    0.00 
 110   18:00   0.05   35.1    49    8.1     0    17.3   685.2    0.00 
 110   18:10   0.06   35.8    44    7.7     0    17.9   685.2    0.00 
 110   18:20   0.05   36.0    44    7.8     0    15.5   685.2    0.00 
 110   18:30   0.01   35.7    44    7.0     0    14.9   685.3    0.00 
 110   18:40   0.01   35.6    44    6.7     0    14.9   685.3    0.00 
 110   18:50   0.00   35.6    44    7.4     0    15.5   685.2    0.00 
 110   19:00   0.00   35.3    46    6.3     0    12.5   685.3    0.00 
 110   19:10   0.00   34.9    47    7.1     0    18.5   685.4    0.00 
 110   19:20   0.00   35.0    47    6.7     0    19.1   685.5    0.00 
 110   19:30   0.00   34.9    47    7.0     0    14.9   685.6    0.00 
 110   19:40   0.00   34.9    47    7.2     0    14.9   685.6    0.00 
 110   19:50   0.00   34.8    47    6.6     0    11.3   685.8    0.00 
 110   20:00   0.00   34.6    46    6.4     0    10.8   685.8    0.00 
 110   20:10   0.00   34.7    46    6.6     0    10.8   685.9    0.00 
 110   20:20   0.00   34.9    45    7.5     0    15.5   686.1    0.00 
 110   20:30   0.00   35.0    45    6.8     0    13.7   686.2    0.00 
 110   20:40   0.00   34.8    46    6.7     0    19.7   686.3    0.00 
 110   20:50   0.00   34.7    46    6.5     0    13.1   686.3    0.00 
 110   21:00   0.00   34.5    47    6.5     0    12.5   686.3    0.00 
 110   21:10   0.00   34.6    46    6.8     0    13.7   686.3    0.00 
 110   21:20   0.00   34.6    47    6.8     0    15.5   686.3    0.00 
 110   21:30   0.00   34.8    46    7.3     0    14.3   686.3    0.00 
 110   21:40   0.00   34.8    46    6.9     0    16.1   686.3    0.00 
 110   21:50   0.00   34.7    46    6.6     0    13.7   686.4    0.00 
 110   22:00   0.00   34.7    46    6.9     0    13.1   686.5    0.00 
 110   22:10   0.00   34.6    45    6.0     0    12.5   686.5    0.00 
 110   22:20   0.00   34.2    45    6.0     0    12.5   686.5    0.00 
 110   22:30   0.00   34.4    44    6.4     0    13.1   686.5    0.00 
 110   22:40   0.00   34.3    43    5.9     0    12.5   686.5    0.00 
 110   22:50   0.00   34.2    43    5.2     0    12.5   686.5    0.00 
 110   23:00   0.00   34.2    42    5.1     0    10.8   686.5    0.00 
 110   23:10   0.00   34.3    42    4.9     0    14.3   686.6    0.00 
 110   23:20   0.00   34.2    42    4.8     0    10.8   686.6    0.00 

Return to Redondo, Valles Caldera graphs page.


Western Regional Climate Center,wrcc@dri.edu